sensor_id;sensor_type;location;lat;lon;timestamp;temperature;humidity
54006;DHT22;39919;38.160;-122.260;2022-12-10T00:00:52;13.00;71.60
54006;DHT22;39919;38.160;-122.260;2022-12-10T00:03:20;13.00;71.40
54006;DHT22;39919;38.160;-122.260;2022-12-10T00:05:49;12.90;71.20
54006;DHT22;39919;38.160;-122.260;2022-12-10T00:08:17;12.90;71.20
54006;DHT22;39919;38.160;-122.260;2022-12-10T00:10:50;12.90;71.20
54006;DHT22;39919;38.160;-122.260;2022-12-10T00:13:19;12.80;71.40
54006;DHT22;39919;38.160;-122.260;2022-12-10T00:15:47;12.80;71.60
54006;DHT22;39919;38.160;-122.260;2022-12-10T00:18:16;12.80;71.70
54006;DHT22;39919;38.160;-122.260;2022-12-10T00:20:47;12.70;71.80
54006;DHT22;39919;38.160;-122.260;2022-12-10T00:23:15;12.70;72.10
54006;DHT22;39919;38.160;-122.260;2022-12-10T00:25:44;12.70;72.30
54006;DHT22;39919;38.160;-122.260;2022-12-10T00:28:14;12.60;72.70
54006;DHT22;39919;38.160;-122.260;2022-12-10T00:30:42;12.60;74.40
54006;DHT22;39919;38.160;-122.260;2022-12-10T00:33:14;12.60;74.90
54006;DHT22;39919;38.160;-122.260;2022-12-10T00:35:45;12.50;76.10
54006;DHT22;39919;38.160;-122.260;2022-12-10T00:38:13;12.50;76.20
54006;DHT22;39919;38.160;-122.260;2022-12-10T00:40:44;12.40;76.30
54006;DHT22;39919;38.160;-122.260;2022-12-10T00:43:14;12.40;76.60
54006;DHT22;39919;38.160;-122.260;2022-12-10T00:45:42;12.30;76.40
54006;DHT22;39919;38.160;-122.260;2022-12-10T00:48:14;12.20;76.80
54006;DHT22;39919;38.160;-122.260;2022-12-10T00:50:42;12.20;76.90
54006;DHT22;39919;38.160;-122.260;2022-12-10T00:53:11;12.10;77.30
54006;DHT22;39919;38.160;-122.260;2022-12-10T00:55:39;12.10;78.30
54006;DHT22;39919;38.160;-122.260;2022-12-10T00:58:08;12.00;78.70
54006;DHT22;39919;38.160;-122.260;2022-12-10T01:00:39;12.00;78.70
54006;DHT22;39919;38.160;-122.260;2022-12-10T01:03:08;11.90;78.60
54006;DHT22;39919;38.160;-122.260;2022-12-10T01:05:36;11.90;78.70
54006;DHT22;39919;38.160;-122.260;2022-12-10T01:08:04;11.80;78.60
54006;DHT22;39919;38.160;-122.260;2022-12-10T01:10:33;11.70;78.60
54006;DHT22;39919;38.160;-122.260;2022-12-10T01:13:01;11.70;78.80
54006;DHT22;39919;38.160;-122.260;2022-12-10T01:15:30;11.70;79.10
54006;DHT22;39919;38.160;-122.260;2022-12-10T01:17:59;11.60;79.50
54006;DHT22;39919;38.160;-122.260;2022-12-10T01:20:28;11.60;79.70
54006;DHT22;39919;38.160;-122.260;2022-12-10T01:22:58;11.50;79.90
54006;DHT22;39919;38.160;-122.260;2022-12-10T01:25:26;11.50;79.90
54006;DHT22;39919;38.160;-122.260;2022-12-10T01:27:54;11.40;79.90
54006;DHT22;39919;38.160;-122.260;2022-12-10T01:30:23;11.40;80.20
54006;DHT22;39919;38.160;-122.260;2022-12-10T01:32:51;11.30;80.20
54006;DHT22;39919;38.160;-122.260;2022-12-10T01:35:21;11.30;80.30
54006;DHT22;39919;38.160;-122.260;2022-12-10T01:37:49;11.30;80.30
54006;DHT22;39919;38.160;-122.260;2022-12-10T01:40:18;11.30;80.40
54006;DHT22;39919;38.160;-122.260;2022-12-10T01:42:46;11.20;80.60
54006;DHT22;39919;38.160;-122.260;2022-12-10T01:45:14;11.20;80.80
54006;DHT22;39919;38.160;-122.260;2022-12-10T01:47:43;11.20;81.50
54006;DHT22;39919;38.160;-122.260;2022-12-10T01:50:11;11.10;81.20
54006;DHT22;39919;38.160;-122.260;2022-12-10T01:52:41;11.10;81.10
54006;DHT22;39919;38.160;-122.260;2022-12-10T01:57:53;11.10;81.00
54006;DHT22;39919;38.160;-122.260;2022-12-10T02:00:21;11.00;80.80
54006;DHT22;39919;38.160;-122.260;2022-12-10T02:02:50;11.00;80.70
54006;DHT22;39919;38.160;-122.260;2022-12-10T02:05:25;11.00;80.80
54006;DHT22;39919;38.160;-122.260;2022-12-10T02:08:02;11.00;80.80
54006;DHT22;39919;38.160;-122.260;2022-12-10T02:10:45;11.00;82.00
54006;DHT22;39919;38.160;-122.260;2022-12-10T02:13:17;11.00;81.60
54006;DHT22;39919;38.160;-122.260;2022-12-10T02:15:47;10.90;81.20
54006;DHT22;39919;38.160;-122.260;2022-12-10T02:18:18;10.90;80.80
54006;DHT22;39919;38.160;-122.260;2022-12-10T02:20:48;10.90;80.80
54006;DHT22;39919;38.160;-122.260;2022-12-10T02:23:22;10.90;80.80
54006;DHT22;39919;38.160;-122.260;2022-12-10T02:25:53;10.90;80.60
54006;DHT22;39919;38.160;-122.260;2022-12-10T02:28:25;10.90;80.50
54006;DHT22;39919;38.160;-122.260;2022-12-10T02:31:01;10.90;80.40
54006;DHT22;39919;38.160;-122.260;2022-12-10T02:33:30;10.90;80.30
54006;DHT22;39919;38.160;-122.260;2022-12-10T02:35:59;10.90;80.30
54006;DHT22;39919;38.160;-122.260;2022-12-10T02:38:29;10.90;80.30
54006;DHT22;39919;38.160;-122.260;2022-12-10T02:40:59;10.90;80.20
54006;DHT22;39919;38.160;-122.260;2022-12-10T02:43:28;10.90;80.20
54006;DHT22;39919;38.160;-122.260;2022-12-10T02:45:57;10.90;80.50
54006;DHT22;39919;38.160;-122.260;2022-12-10T02:48:28;10.90;80.40
54006;DHT22;39919;38.160;-122.260;2022-12-10T02:50:56;10.90;80.70
54006;DHT22;39919;38.160;-122.260;2022-12-10T02:53:25;10.90;81.60
54006;DHT22;39919;38.160;-122.260;2022-12-10T02:55:59;10.90;82.30
54006;DHT22;39919;38.160;-122.260;2022-12-10T02:58:33;10.90;82.80
54006;DHT22;39919;38.160;-122.260;2022-12-10T03:01:06;10.90;83.20
54006;DHT22;39919;38.160;-122.260;2022-12-10T03:03:40;10.90;83.70
54006;DHT22;39919;38.160;-122.260;2022-12-10T03:06:12;10.90;83.80
54006;DHT22;39919;38.160;-122.260;2022-12-10T03:08:46;10.90;84.40
54006;DHT22;39919;38.160;-122.260;2022-12-10T03:11:17;10.90;85.00
54006;DHT22;39919;38.160;-122.260;2022-12-10T03:13:47;10.90;84.90
54006;DHT22;39919;38.160;-122.260;2022-12-10T03:16:18;10.90;84.90
54006;DHT22;39919;38.160;-122.260;2022-12-10T03:18:49;10.90;84.60
54006;DHT22;39919;38.160;-122.260;2022-12-10T03:21:18;10.90;84.20
54006;DHT22;39919;38.160;-122.260;2022-12-10T03:23:47;10.90;84.00
54006;DHT22;39919;38.160;-122.260;2022-12-10T03:26:17;10.90;83.90
54006;DHT22;39919;38.160;-122.260;2022-12-10T03:28:46;10.90;84.00
54006;DHT22;39919;38.160;-122.260;2022-12-10T03:31:17;10.90;83.80
54006;DHT22;39919;38.160;-122.260;2022-12-10T03:33:46;10.90;83.60
54006;DHT22;39919;38.160;-122.260;2022-12-10T03:36:17;10.90;83.40
54006;DHT22;39919;38.160;-122.260;2022-12-10T03:38:46;10.90;83.30
54006;DHT22;39919;38.160;-122.260;2022-12-10T03:41:14;10.90;83.40
54006;DHT22;39919;38.160;-122.260;2022-12-10T03:43:49;11.00;83.90
54006;DHT22;39919;38.160;-122.260;2022-12-10T03:46:18;11.00;85.00
54006;DHT22;39919;38.160;-122.260;2022-12-10T03:48:46;11.00;85.90
54006;DHT22;39919;38.160;-122.260;2022-12-10T03:51:15;11.00;86.60
54006;DHT22;39919;38.160;-122.260;2022-12-10T03:53:45;11.00;86.50
54006;DHT22;39919;38.160;-122.260;2022-12-10T03:56:16;11.00;86.20
54006;DHT22;39919;38.160;-122.260;2022-12-10T03:58:44;11.00;85.90
54006;DHT22;39919;38.160;-122.260;2022-12-10T04:01:13;11.00;85.70
54006;DHT22;39919;38.160;-122.260;2022-12-10T04:03:42;11.00;85.50
54006;DHT22;39919;38.160;-122.260;2022-12-10T04:06:13;11.00;85.40
54006;DHT22;39919;38.160;-122.260;2022-12-10T04:08:41;11.00;85.30
54006;DHT22;39919;38.160;-122.260;2022-12-10T04:11:11;11.00;85.20
54006;DHT22;39919;38.160;-122.260;2022-12-10T04:13:40;11.00;85.60
54006;DHT22;39919;38.160;-122.260;2022-12-10T04:16:25;11.00;85.60
54006;DHT22;39919;38.160;-122.260;2022-12-10T04:18:57;11.00;86.90
54006;DHT22;39919;38.160;-122.260;2022-12-10T04:21:25;11.00;87.50
54006;DHT22;39919;38.160;-122.260;2022-12-10T04:24:11;11.00;87.50
54006;DHT22;39919;38.160;-122.260;2022-12-10T04:26:58;11.00;88.50
54006;DHT22;39919;38.160;-122.260;2022-12-10T04:29:29;11.00;89.00
54006;DHT22;39919;38.160;-122.260;2022-12-10T04:31:57;11.00;89.00
54006;DHT22;39919;38.160;-122.260;2022-12-10T04:34:26;11.00;89.30
54006;DHT22;39919;38.160;-122.260;2022-12-10T04:36:54;11.00;89.00
54006;DHT22;39919;38.160;-122.260;2022-12-10T04:39:24;11.00;88.70
54006;DHT22;39919;38.160;-122.260;2022-12-10T04:41:53;11.00;88.50
54006;DHT22;39919;38.160;-122.260;2022-12-10T04:44:22;11.00;88.60
54006;DHT22;39919;38.160;-122.260;2022-12-10T04:46:51;11.00;89.30
54006;DHT22;39919;38.160;-122.260;2022-12-10T04:49:20;11.00;90.10
54006;DHT22;39919;38.160;-122.260;2022-12-10T04:51:48;11.00;89.70
54006;DHT22;39919;38.160;-122.260;2022-12-10T04:54:17;11.00;89.60
54006;DHT22;39919;38.160;-122.260;2022-12-10T04:56:45;11.00;89.20
54006;DHT22;39919;38.160;-122.260;2022-12-10T04:59:13;11.00;88.70
54006;DHT22;39919;38.160;-122.260;2022-12-10T05:01:43;11.00;89.00
54006;DHT22;39919;38.160;-122.260;2022-12-10T05:04:12;11.00;88.50
54006;DHT22;39919;38.160;-122.260;2022-12-10T05:06:41;11.00;88.30
54006;DHT22;39919;38.160;-122.260;2022-12-10T05:09:18;11.00;88.80
54006;DHT22;39919;38.160;-122.260;2022-12-10T05:11:46;11.00;88.90
54006;DHT22;39919;38.160;-122.260;2022-12-10T05:14:14;11.00;89.20
54006;DHT22;39919;38.160;-122.260;2022-12-10T05:16:44;11.00;89.50
54006;DHT22;39919;38.160;-122.260;2022-12-10T05:19:13;11.00;89.40
54006;DHT22;39919;38.160;-122.260;2022-12-10T05:21:41;11.00;89.40
54006;DHT22;39919;38.160;-122.260;2022-12-10T05:24:26;11.00;89.20
54006;DHT22;39919;38.160;-122.260;2022-12-10T05:26:54;10.90;88.90
54006;DHT22;39919;38.160;-122.260;2022-12-10T05:29:24;10.90;89.80
54006;DHT22;39919;38.160;-122.260;2022-12-10T05:31:56;10.90;90.20
54006;DHT22;39919;38.160;-122.260;2022-12-10T05:34:24;11.00;90.50
54006;DHT22;39919;38.160;-122.260;2022-12-10T05:36:55;10.90;90.60
54006;DHT22;39919;38.160;-122.260;2022-12-10T05:39:23;10.90;90.50
54006;DHT22;39919;38.160;-122.260;2022-12-10T05:41:52;10.90;90.40
54006;DHT22;39919;38.160;-122.260;2022-12-10T05:44:20;11.00;90.30
54006;DHT22;39919;38.160;-122.260;2022-12-10T05:46:48;11.00;90.20
54006;DHT22;39919;38.160;-122.260;2022-12-10T05:49:18;11.00;90.30
54006;DHT22;39919;38.160;-122.260;2022-12-10T05:51:46;11.00;90.60
54006;DHT22;39919;38.160;-122.260;2022-12-10T05:54:15;11.00;91.40
54006;DHT22;39919;38.160;-122.260;2022-12-10T05:56:43;11.00;91.60
54006;DHT22;39919;38.160;-122.260;2022-12-10T05:59:12;11.00;91.60
54006;DHT22;39919;38.160;-122.260;2022-12-10T06:01:40;11.00;91.60
54006;DHT22;39919;38.160;-122.260;2022-12-10T06:04:09;11.00;91.60
54006;DHT22;39919;38.160;-122.260;2022-12-10T06:06:39;11.00;92.00
54006;DHT22;39919;38.160;-122.260;2022-12-10T06:09:10;11.00;92.10
54006;DHT22;39919;38.160;-122.260;2022-12-10T06:11:39;11.00;92.00
54006;DHT22;39919;38.160;-122.260;2022-12-10T06:14:08;11.00;92.40
54006;DHT22;39919;38.160;-122.260;2022-12-10T06:16:38;11.00;92.70
54006;DHT22;39919;38.160;-122.260;2022-12-10T06:19:06;11.00;92.60
54006;DHT22;39919;38.160;-122.260;2022-12-10T06:21:34;11.00;92.80
54006;DHT22;39919;38.160;-122.260;2022-12-10T06:24:04;11.00;92.80
54006;DHT22;39919;38.160;-122.260;2022-12-10T06:26:33;11.00;93.10
54006;DHT22;39919;38.160;-122.260;2022-12-10T06:29:01;11.00;92.90
54006;DHT22;39919;38.160;-122.260;2022-12-10T06:31:30;11.00;93.00
54006;DHT22;39919;38.160;-122.260;2022-12-10T06:33:58;11.00;92.80
54006;DHT22;39919;38.160;-122.260;2022-12-10T06:36:27;11.00;92.80
54006;DHT22;39919;38.160;-122.260;2022-12-10T06:38:55;11.00;93.30
54006;DHT22;39919;38.160;-122.260;2022-12-10T06:41:25;11.00;93.00
54006;DHT22;39919;38.160;-122.260;2022-12-10T06:43:53;11.00;92.80
54006;DHT22;39919;38.160;-122.260;2022-12-10T06:46:24;11.00;92.60
54006;DHT22;39919;38.160;-122.260;2022-12-10T06:48:53;11.00;92.20
54006;DHT22;39919;38.160;-122.260;2022-12-10T06:51:23;11.00;91.90
54006;DHT22;39919;38.160;-122.260;2022-12-10T06:53:52;11.00;91.80
54006;DHT22;39919;38.160;-122.260;2022-12-10T06:56:20;11.00;91.60
54006;DHT22;39919;38.160;-122.260;2022-12-10T06:58:50;11.00;91.40
54006;DHT22;39919;38.160;-122.260;2022-12-10T07:01:19;11.00;91.40
54006;DHT22;39919;38.160;-122.260;2022-12-10T07:03:48;11.00;91.20
54006;DHT22;39919;38.160;-122.260;2022-12-10T07:06:17;11.00;91.10
54006;DHT22;39919;38.160;-122.260;2022-12-10T07:08:46;11.00;91.00
54006;DHT22;39919;38.160;-122.260;2022-12-10T07:11:14;11.00;90.80
54006;DHT22;39919;38.160;-122.260;2022-12-10T07:13:43;11.00;90.70
54006;DHT22;39919;38.160;-122.260;2022-12-10T07:16:13;11.00;90.80
54006;DHT22;39919;38.160;-122.260;2022-12-10T07:18:42;11.00;90.80
54006;DHT22;39919;38.160;-122.260;2022-12-10T07:21:14;11.00;90.80
54006;DHT22;39919;38.160;-122.260;2022-12-10T07:23:42;10.90;90.80
54006;DHT22;39919;38.160;-122.260;2022-12-10T07:26:10;11.00;90.70
54006;DHT22;39919;38.160;-122.260;2022-12-10T07:28:39;11.00;90.80
54006;DHT22;39919;38.160;-122.260;2022-12-10T07:31:07;11.00;90.80
54006;DHT22;39919;38.160;-122.260;2022-12-10T07:33:38;11.00;90.50
54006;DHT22;39919;38.160;-122.260;2022-12-10T07:36:06;10.90;90.50
54006;DHT22;39919;38.160;-122.260;2022-12-10T07:38:35;10.90;90.30
54006;DHT22;39919;38.160;-122.260;2022-12-10T07:41:03;10.90;89.70
54006;DHT22;39919;38.160;-122.260;2022-12-10T07:43:32;10.90;89.60
54006;DHT22;39919;38.160;-122.260;2022-12-10T07:46:04;10.90;89.40
54006;DHT22;39919;38.160;-122.260;2022-12-10T07:48:33;10.90;89.10
54006;DHT22;39919;38.160;-122.260;2022-12-10T07:51:03;10.80;88.90
54006;DHT22;39919;38.160;-122.260;2022-12-10T07:53:32;10.80;89.10
54006;DHT22;39919;38.160;-122.260;2022-12-10T07:56:00;10.80;89.10
54006;DHT22;39919;38.160;-122.260;2022-12-10T07:58:29;10.80;89.40
54006;DHT22;39919;38.160;-122.260;2022-12-10T08:00:57;10.80;89.90
54006;DHT22;39919;38.160;-122.260;2022-12-10T08:03:25;10.90;90.30
54006;DHT22;39919;38.160;-122.260;2022-12-10T08:06:00;10.80;90.10
54006;DHT22;39919;38.160;-122.260;2022-12-10T08:08:30;10.80;90.10
54006;DHT22;39919;38.160;-122.260;2022-12-10T08:11:00;10.80;90.50
54006;DHT22;39919;38.160;-122.260;2022-12-10T08:13:28;10.90;90.80
54006;DHT22;39919;38.160;-122.260;2022-12-10T08:16:00;10.90;90.60
54006;DHT22;39919;38.160;-122.260;2022-12-10T08:18:29;10.90;90.90
54006;DHT22;39919;38.160;-122.260;2022-12-10T08:20:57;10.90;91.00
54006;DHT22;39919;38.160;-122.260;2022-12-10T08:23:25;10.90;90.80
54006;DHT22;39919;38.160;-122.260;2022-12-10T08:25:55;10.90;90.90
54006;DHT22;39919;38.160;-122.260;2022-12-10T08:28:24;10.90;90.90
54006;DHT22;39919;38.160;-122.260;2022-12-10T08:30:52;10.90;90.70
54006;DHT22;39919;38.160;-122.260;2022-12-10T08:33:21;11.00;90.50
54006;DHT22;39919;38.160;-122.260;2022-12-10T08:35:49;11.00;90.30
54006;DHT22;39919;38.160;-122.260;2022-12-10T08:38:17;11.00;90.00
54006;DHT22;39919;38.160;-122.260;2022-12-10T08:40:47;11.00;89.30
54006;DHT22;39919;38.160;-122.260;2022-12-10T08:43:17;11.00;88.60
54006;DHT22;39919;38.160;-122.260;2022-12-10T08:45:45;11.10;88.10
54006;DHT22;39919;38.160;-122.260;2022-12-10T08:48:13;11.10;87.10
54006;DHT22;39919;38.160;-122.260;2022-12-10T08:50:42;11.10;86.30
54006;DHT22;39919;38.160;-122.260;2022-12-10T08:53:10;11.20;85.60
54006;DHT22;39919;38.160;-122.260;2022-12-10T08:55:38;11.20;84.80
54006;DHT22;39919;38.160;-122.260;2022-12-10T08:58:07;11.20;83.40
54006;DHT22;39919;38.160;-122.260;2022-12-10T09:00:38;11.20;82.50
54006;DHT22;39919;38.160;-122.260;2022-12-10T09:03:07;11.20;82.20
54006;DHT22;39919;38.160;-122.260;2022-12-10T09:05:35;11.30;81.70
54006;DHT22;39919;38.160;-122.260;2022-12-10T09:08:04;11.30;80.80
54006;DHT22;39919;38.160;-122.260;2022-12-10T09:10:32;11.30;80.60
54006;DHT22;39919;38.160;-122.260;2022-12-10T09:13:01;11.30;80.60
54006;DHT22;39919;38.160;-122.260;2022-12-10T09:15:29;11.40;81.10
54006;DHT22;39919;38.160;-122.260;2022-12-10T09:17:59;11.30;80.40
54006;DHT22;39919;38.160;-122.260;2022-12-10T09:20:27;11.40;80.70
54006;DHT22;39919;38.160;-122.260;2022-12-10T09:22:56;11.40;80.90
54006;DHT22;39919;38.160;-122.260;2022-12-10T09:25:24;11.40;80.50
54006;DHT22;39919;38.160;-122.260;2022-12-10T09:27:53;11.40;80.40
54006;DHT22;39919;38.160;-122.260;2022-12-10T09:30:21;11.50;79.90
54006;DHT22;39919;38.160;-122.260;2022-12-10T09:32:49;11.50;79.70
54006;DHT22;39919;38.160;-122.260;2022-12-10T09:35:19;11.50;79.90
54006;DHT22;39919;38.160;-122.260;2022-12-10T09:37:48;11.50;79.80
54006;DHT22;39919;38.160;-122.260;2022-12-10T09:40:16;11.50;79.20
54006;DHT22;39919;38.160;-122.260;2022-12-10T09:42:47;11.60;79.10
54006;DHT22;39919;38.160;-122.260;2022-12-10T09:45:18;11.60;79.10
54006;DHT22;39919;38.160;-122.260;2022-12-10T09:47:52;11.60;78.80
54006;DHT22;39919;38.160;-122.260;2022-12-10T09:50:26;11.60;78.90
54006;DHT22;39919;38.160;-122.260;2022-12-10T09:52:54;11.60;78.90
54006;DHT22;39919;38.160;-122.260;2022-12-10T09:55:25;11.60;79.00
54006;DHT22;39919;38.160;-122.260;2022-12-10T09:57:55;11.70;79.20
54006;DHT22;39919;38.160;-122.260;2022-12-10T10:00:25;11.70;79.20
54006;DHT22;39919;38.160;-122.260;2022-12-10T10:02:54;11.70;79.20
54006;DHT22;39919;38.160;-122.260;2022-12-10T10:05:27;11.70;79.00
54006;DHT22;39919;38.160;-122.260;2022-12-10T10:07:59;11.80;79.10
54006;DHT22;39919;38.160;-122.260;2022-12-10T10:10:29;11.70;78.90
54006;DHT22;39919;38.160;-122.260;2022-12-10T10:13:00;11.70;79.20
54006;DHT22;39919;38.160;-122.260;2022-12-10T10:15:32;11.80;79.00
54006;DHT22;39919;38.160;-122.260;2022-12-10T10:18:02;11.80;78.90
54006;DHT22;39919;38.160;-122.260;2022-12-10T10:20:36;11.80;79.00
54006;DHT22;39919;38.160;-122.260;2022-12-10T10:23:04;11.80;78.80
54006;DHT22;39919;38.160;-122.260;2022-12-10T10:25:33;11.80;78.90
54006;DHT22;39919;38.160;-122.260;2022-12-10T10:28:01;11.80;78.90
54006;DHT22;39919;38.160;-122.260;2022-12-10T10:30:30;11.80;78.60
54006;DHT22;39919;38.160;-122.260;2022-12-10T10:32:59;11.80;78.70
54006;DHT22;39919;38.160;-122.260;2022-12-10T10:35:43;11.80;79.00
54006;DHT22;39919;38.160;-122.260;2022-12-10T10:38:15;11.80;79.00
54006;DHT22;39919;38.160;-122.260;2022-12-10T10:40:44;11.80;79.20
54006;DHT22;39919;38.160;-122.260;2022-12-10T10:43:22;11.80;79.20
54006;DHT22;39919;38.160;-122.260;2022-12-10T10:45:52;11.80;79.30
54006;DHT22;39919;38.160;-122.260;2022-12-10T10:48:23;11.80;79.30
54006;DHT22;39919;38.160;-122.260;2022-12-10T10:50:54;11.80;79.20
54006;DHT22;39919;38.160;-122.260;2022-12-10T10:53:28;11.80;79.30
54006;DHT22;39919;38.160;-122.260;2022-12-10T10:55:58;11.80;79.60
54006;DHT22;39919;38.160;-122.260;2022-12-10T10:58:27;11.80;80.10
54006;DHT22;39919;38.160;-122.260;2022-12-10T11:00:57;11.80;79.90
54006;DHT22;39919;38.160;-122.260;2022-12-10T11:03:26;11.80;80.10
54006;DHT22;39919;38.160;-122.260;2022-12-10T11:06:00;11.80;80.30
54006;DHT22;39919;38.160;-122.260;2022-12-10T11:08:29;11.90;80.40
54006;DHT22;39919;38.160;-122.260;2022-12-10T11:10:59;11.80;80.10
54006;DHT22;39919;38.160;-122.260;2022-12-10T11:13:30;11.80;80.30
54006;DHT22;39919;38.160;-122.260;2022-12-10T11:16:00;11.80;81.10
54006;DHT22;39919;38.160;-122.260;2022-12-10T11:18:35;11.90;80.90
54006;DHT22;39919;38.160;-122.260;2022-12-10T11:21:06;11.90;81.30
54006;DHT22;39919;38.160;-122.260;2022-12-10T11:23:37;11.90;81.30
54006;DHT22;39919;38.160;-122.260;2022-12-10T11:26:15;11.90;81.30
54006;DHT22;39919;38.160;-122.260;2022-12-10T11:28:50;11.90;81.70
54006;DHT22;39919;38.160;-122.260;2022-12-10T11:31:30;11.90;81.80
54006;DHT22;39919;38.160;-122.260;2022-12-10T11:34:01;11.90;81.60
54006;DHT22;39919;38.160;-122.260;2022-12-10T11:36:34;11.90;82.00
54006;DHT22;39919;38.160;-122.260;2022-12-10T11:39:06;11.90;82.20
54006;DHT22;39919;38.160;-122.260;2022-12-10T11:41:38;11.90;82.20
54006;DHT22;39919;38.160;-122.260;2022-12-10T11:44:12;12.00;82.20
54006;DHT22;39919;38.160;-122.260;2022-12-10T11:46:49;11.90;82.50
54006;DHT22;39919;38.160;-122.260;2022-12-10T11:49:23;12.00;83.00
54006;DHT22;39919;38.160;-122.260;2022-12-10T11:51:57;12.00;83.40
54006;DHT22;39919;38.160;-122.260;2022-12-10T11:54:33;12.00;83.60
54006;DHT22;39919;38.160;-122.260;2022-12-10T11:57:06;11.90;83.90
54006;DHT22;39919;38.160;-122.260;2022-12-10T11:59:39;11.90;84.10
54006;DHT22;39919;38.160;-122.260;2022-12-10T12:02:36;11.90;85.10
54006;DHT22;39919;38.160;-122.260;2022-12-10T12:05:12;11.90;84.70
54006;DHT22;39919;38.160;-122.260;2022-12-10T12:07:47;11.90;84.90
54006;DHT22;39919;38.160;-122.260;2022-12-10T12:10:25;11.90;85.00
54006;DHT22;39919;38.160;-122.260;2022-12-10T12:12:57;11.90;86.20
54006;DHT22;39919;38.160;-122.260;2022-12-10T12:15:28;11.90;86.50
54006;DHT22;39919;38.160;-122.260;2022-12-10T12:17:58;11.90;87.40
54006;DHT22;39919;38.160;-122.260;2022-12-10T12:20:28;11.90;88.10
54006;DHT22;39919;38.160;-122.260;2022-12-10T12:23:00;11.90;88.10
54006;DHT22;39919;38.160;-122.260;2022-12-10T12:25:30;11.90;89.00
54006;DHT22;39919;38.160;-122.260;2022-12-10T12:28:01;11.90;89.30
54006;DHT22;39919;38.160;-122.260;2022-12-10T12:30:33;12.00;90.10
54006;DHT22;39919;38.160;-122.260;2022-12-10T12:33:04;11.90;90.10
54006;DHT22;39919;38.160;-122.260;2022-12-10T12:35:36;11.90;90.30
54006;DHT22;39919;38.160;-122.260;2022-12-10T12:38:13;12.00;90.40
54006;DHT22;39919;38.160;-122.260;2022-12-10T12:40:47;12.00;90.40
54006;DHT22;39919;38.160;-122.260;2022-12-10T12:43:19;12.00;90.60
54006;DHT22;39919;38.160;-122.260;2022-12-10T12:45:49;12.00;90.40
54006;DHT22;39919;38.160;-122.260;2022-12-10T12:48:24;12.00;90.50
54006;DHT22;39919;38.160;-122.260;2022-12-10T12:50:57;12.00;90.80
54006;DHT22;39919;38.160;-122.260;2022-12-10T12:53:28;12.00;90.50
54006;DHT22;39919;38.160;-122.260;2022-12-10T12:55:58;12.00;90.50
54006;DHT22;39919;38.160;-122.260;2022-12-10T12:58:31;12.10;90.70
54006;DHT22;39919;38.160;-122.260;2022-12-10T13:01:08;12.10;90.90
54006;DHT22;39919;38.160;-122.260;2022-12-10T13:03:42;12.10;90.90
54006;DHT22;39919;38.160;-122.260;2022-12-10T13:06:18;12.10;91.00
54006;DHT22;39919;38.160;-122.260;2022-12-10T13:08:56;12.10;91.10
54006;DHT22;39919;38.160;-122.260;2022-12-10T13:11:30;12.10;91.30
54006;DHT22;39919;38.160;-122.260;2022-12-10T13:14:04;12.10;91.60
54006;DHT22;39919;38.160;-122.260;2022-12-10T13:16:49;12.20;91.70
54006;DHT22;39919;38.160;-122.260;2022-12-10T13:19:28;12.20;92.10
54006;DHT22;39919;38.160;-122.260;2022-12-10T13:21:58;12.20;92.10
54006;DHT22;39919;38.160;-122.260;2022-12-10T13:27:23;12.20;93.20
54006;DHT22;39919;38.160;-122.260;2022-12-10T13:29:55;12.20;93.90
54006;DHT22;39919;38.160;-122.260;2022-12-10T13:32:42;12.20;94.30
54006;DHT22;39919;38.160;-122.260;2022-12-10T13:35:30;12.20;94.10
54006;DHT22;39919;38.160;-122.260;2022-12-10T13:38:04;12.20;94.70
54006;DHT22;39919;38.160;-122.260;2022-12-10T13:40:39;12.10;95.20
54006;DHT22;39919;38.160;-122.260;2022-12-10T13:43:42;12.10;95.10
54006;DHT22;39919;38.160;-122.260;2022-12-10T13:46:49;12.10;95.30
54006;DHT22;39919;38.160;-122.260;2022-12-10T13:49:18;12.10;95.40
54006;DHT22;39919;38.160;-122.260;2022-12-10T13:51:50;12.10;95.70
54006;DHT22;39919;38.160;-122.260;2022-12-10T13:54:25;12.10;96.10
54006;DHT22;39919;38.160;-122.260;2022-12-10T13:56:58;12.10;96.80
54006;DHT22;39919;38.160;-122.260;2022-12-10T13:59:33;12.00;97.00
54006;DHT22;39919;38.160;-122.260;2022-12-10T14:05:00;12.00;97.40
54006;DHT22;39919;38.160;-122.260;2022-12-10T14:07:31;12.00;97.40
54006;DHT22;39919;38.160;-122.260;2022-12-10T14:10:00;11.90;97.30
54006;DHT22;39919;38.160;-122.260;2022-12-10T14:12:29;11.90;97.70
54006;DHT22;39919;38.160;-122.260;2022-12-10T14:15:04;11.90;98.30
54006;DHT22;39919;38.160;-122.260;2022-12-10T14:17:34;12.00;98.00
54006;DHT22;39919;38.160;-122.260;2022-12-10T14:20:06;11.90;98.40
54006;DHT22;39919;38.160;-122.260;2022-12-10T14:22:35;12.00;98.30
54006;DHT22;39919;38.160;-122.260;2022-12-10T14:25:09;12.00;98.50
54006;DHT22;39919;38.160;-122.260;2022-12-10T14:27:38;12.00;98.50
54006;DHT22;39919;38.160;-122.260;2022-12-10T14:30:14;12.00;98.50
54006;DHT22;39919;38.160;-122.260;2022-12-10T14:32:43;12.00;98.70
54006;DHT22;39919;38.160;-122.260;2022-12-10T14:35:13;12.00;99.10
54006;DHT22;39919;38.160;-122.260;2022-12-10T14:37:43;12.00;99.10
54006;DHT22;39919;38.160;-122.260;2022-12-10T14:42:45;12.00;99.60
54006;DHT22;39919;38.160;-122.260;2022-12-10T14:45:15;12.00;99.70
54006;DHT22;39919;38.160;-122.260;2022-12-10T14:47:43;12.00;99.80
54006;DHT22;39919;38.160;-122.260;2022-12-10T14:50:13;12.10;99.90
54006;DHT22;39919;38.160;-122.260;2022-12-10T14:52:42;12.10;99.90
54006;DHT22;39919;38.160;-122.260;2022-12-10T14:55:17;12.10;99.90
54006;DHT22;39919;38.160;-122.260;2022-12-10T14:57:49;12.10;99.90
54006;DHT22;39919;38.160;-122.260;2022-12-10T15:00:22;12.10;99.90
54006;DHT22;39919;38.160;-122.260;2022-12-10T15:02:51;12.10;99.90
54006;DHT22;39919;38.160;-122.260;2022-12-10T15:05:21;12.10;99.90
54006;DHT22;39919;38.160;-122.260;2022-12-10T15:07:52;12.20;99.90
54006;DHT22;39919;38.160;-122.260;2022-12-10T15:10:23;12.20;99.90
54006;DHT22;39919;38.160;-122.260;2022-12-10T15:12:53;12.20;99.90
54006;DHT22;39919;38.160;-122.260;2022-12-10T15:15:29;12.30;99.90
54006;DHT22;39919;38.160;-122.260;2022-12-10T15:17:58;12.30;99.90
54006;DHT22;39919;38.160;-122.260;2022-12-10T15:20:28;12.30;99.90